sensor_id;sensor_type;location;lat;lon;timestamp;pressure;altitude;pressure_sealevel;temperature
6454;BMP180;3260;52.438;13.502;2022-08-18T04:00:24;100341.00;;;23.90
6454;BMP180;3260;52.438;13.502;2022-08-18T04:02:53;100343.00;;;23.80
6454;BMP180;3260;52.438;13.502;2022-08-18T04:05:21;100349.00;;;23.90
6454;BMP180;3260;52.438;13.502;2022-08-18T04:07:49;100343.00;;;23.90
6454;BMP180;3260;52.438;13.502;2022-08-18T04:10:17;100347.00;;;23.90
6454;BMP180;3260;52.438;13.502;2022-08-18T04:12:46;100354.00;;;23.70
6454;BMP180;3260;52.438;13.502;2022-08-18T04:15:15;100350.00;;;23.50
6454;BMP180;3260;52.438;13.502;2022-08-18T04:17:45;100353.00;;;23.30
6454;BMP180;3260;52.438;13.502;2022-08-18T04:20:32;100366.00;;;23.30
6454;BMP180;3260;52.438;13.502;2022-08-18T04:23:00;100363.00;;;23.30
6454;BMP180;3260;52.438;13.502;2022-08-18T04:25:29;100360.00;;;23.30
6454;BMP180;3260;52.438;13.502;2022-08-18T04:28:00;100365.00;;;23.60
6454;BMP180;3260;52.438;13.502;2022-08-18T04:30:29;100364.00;;;23.00
6454;BMP180;3260;52.438;13.502;2022-08-18T04:33:00;100367.00;;;23.40
6454;BMP180;3260;52.438;13.502;2022-08-18T04:35:32;100361.00;;;23.70
6454;BMP180;3260;52.438;13.502;2022-08-18T04:38:00;100365.00;;;23.60
6454;BMP180;3260;52.438;13.502;2022-08-18T04:40:28;100366.00;;;24.00
6454;BMP180;3260;52.438;13.502;2022-08-18T04:42:59;100357.00;;;23.80
6454;BMP180;3260;52.438;13.502;2022-08-18T04:45:29;100356.00;;;24.00
6454;BMP180;3260;52.438;13.502;2022-08-18T04:47:58;100363.00;;;24.00
6454;BMP180;3260;52.438;13.502;2022-08-18T04:50:27;100364.00;;;24.10
6454;BMP180;3260;52.438;13.502;2022-08-18T04:52:55;100368.00;;;24.20
6454;BMP180;3260;52.438;13.502;2022-08-18T04:55:46;100364.00;;;24.00
6454;BMP180;3260;52.438;13.502;2022-08-18T04:58:15;100370.00;;;24.30
6454;BMP180;3260;52.438;13.502;2022-08-18T05:00:44;100375.00;;;24.50
6454;BMP180;3260;52.438;13.502;2022-08-18T05:03:14;100371.00;;;24.60
6454;BMP180;3260;52.438;13.502;2022-08-18T05:05:42;100379.00;;;24.70
6454;BMP180;3260;52.438;13.502;2022-08-18T05:08:10;100386.00;;;24.80
6454;BMP180;3260;52.438;13.502;2022-08-18T05:10:38;100381.00;;;25.00
6454;BMP180;3260;52.438;13.502;2022-08-18T05:13:07;100380.00;;;25.20
6454;BMP180;3260;52.438;13.502;2022-08-18T05:15:35;100383.00;;;25.20
6454;BMP180;3260;52.438;13.502;2022-08-18T05:18:27;100369.00;;;25.20
6454;BMP180;3260;52.438;13.502;2022-08-18T05:20:58;100376.00;;;25.10
6454;BMP180;3260;52.438;13.502;2022-08-18T05:23:27;100377.00;;;25.10
6454;BMP180;3260;52.438;13.502;2022-08-18T05:25:59;100373.00;;;25.40
6454;BMP180;3260;52.438;13.502;2022-08-18T05:28:28;100387.00;;;25.50
6454;BMP180;3260;52.438;13.502;2022-08-18T05:30:56;100381.00;;;25.60
6454;BMP180;3260;52.438;13.502;2022-08-18T05:33:27;100390.00;;;25.70
6454;BMP180;3260;52.438;13.502;2022-08-18T05:36:03;100380.00;;;25.80
6454;BMP180;3260;52.438;13.502;2022-08-18T05:38:52;100386.00;;;26.00
6454;BMP180;3260;52.438;13.502;2022-08-18T05:41:26;100383.00;;;26.00
6454;BMP180;3260;52.438;13.502;2022-08-18T05:43:56;100385.00;;;26.20
6454;BMP180;3260;52.438;13.502;2022-08-18T05:46:35;100386.00;;;26.30
6454;BMP180;3260;52.438;13.502;2022-08-18T05:49:06;100387.00;;;26.40
6454;BMP180;3260;52.438;13.502;2022-08-18T05:51:40;100388.00;;;26.50
6454;BMP180;3260;52.438;13.502;2022-08-18T05:54:10;100387.00;;;26.60
6454;BMP180;3260;52.438;13.502;2022-08-18T05:57:04;100390.00;;;26.70
6454;BMP180;3260;52.438;13.502;2022-08-18T05:59:40;100376.00;;;26.80
6454;BMP180;3260;52.438;13.502;2022-08-18T06:02:17;100386.00;;;26.90
6454;BMP180;3260;52.438;13.502;2022-08-18T06:04:53;100383.00;;;27.00
6454;BMP180;3260;52.438;13.502;2022-08-18T06:07:30;100403.00;;;27.10
6454;BMP180;3260;52.438;13.502;2022-08-18T06:10:03;100389.00;;;27.00
6454;BMP180;3260;52.438;13.502;2022-08-18T06:12:36;100392.00;;;27.40
6454;BMP180;3260;52.438;13.502;2022-08-18T06:15:22;100396.00;;;28.00
6454;BMP180;3260;52.438;13.502;2022-08-18T06:18:24;100401.00;;;27.50
6454;BMP180;3260;52.438;13.502;2022-08-18T06:21:11;100408.00;;;26.90
6454;BMP180;3260;52.438;13.502;2022-08-18T06:23:52;100407.00;;;27.10
6454;BMP180;3260;52.438;13.502;2022-08-18T06:26:30;100416.00;;;27.50
6454;BMP180;3260;52.438;13.502;2022-08-18T06:29:20;100404.00;;;27.40
6454;BMP180;3260;52.438;13.502;2022-08-18T06:31:59;100415.00;;;26.90
6454;BMP180;3260;52.438;13.502;2022-08-18T06:34:43;100416.00;;;27.60
6454;BMP180;3260;52.438;13.502;2022-08-18T06:37:30;100418.00;;;28.20
6454;BMP180;3260;52.438;13.502;2022-08-18T06:40:00;100423.00;;;28.50
6454;BMP180;3260;52.438;13.502;2022-08-18T06:42:31;100432.00;;;28.00
6454;BMP180;3260;52.438;13.502;2022-08-18T06:45:10;100439.00;;;28.00
6454;BMP180;3260;52.438;13.502;2022-08-18T06:47:48;100428.00;;;27.60
6454;BMP180;3260;52.438;13.502;2022-08-18T06:50:25;100434.00;;;27.70
6454;BMP180;3260;52.438;13.502;2022-08-18T06:52:59;100428.00;;;27.90
6454;BMP180;3260;52.438;13.502;2022-08-18T06:55:34;100429.00;;;29.00
6454;BMP180;3260;52.438;13.502;2022-08-18T06:58:25;100434.00;;;29.40
6454;BMP180;3260;52.438;13.502;2022-08-18T07:01:03;100442.00;;;29.00
6454;BMP180;3260;52.438;13.502;2022-08-18T07:03:49;100440.00;;;30.00
6454;BMP180;3260;52.438;13.502;2022-08-18T07:06:29;100435.00;;;30.40
6454;BMP180;3260;52.438;13.502;2022-08-18T07:09:21;100414.00;;;30.60
6454;BMP180;3260;52.438;13.502;2022-08-18T07:12:02;100436.00;;;30.30
6454;BMP180;3260;52.438;13.502;2022-08-18T07:14:33;100441.00;;;30.40
6454;BMP180;3260;52.438;13.502;2022-08-18T07:17:13;100444.00;;;30.20
6454;BMP180;3260;52.438;13.502;2022-08-18T07:19:59;100434.00;;;30.00
6454;BMP180;3260;52.438;13.502;2022-08-18T07:22:28;100430.00;;;30.50
6454;BMP180;3260;52.438;13.502;2022-08-18T07:25:22;100423.00;;;30.40
6454;BMP180;3260;52.438;13.502;2022-08-18T07:27:51;100418.00;;;31.10
6454;BMP180;3260;52.438;13.502;2022-08-18T07:30:31;100425.00;;;30.30
6454;BMP180;3260;52.438;13.502;2022-08-18T07:33:09;100433.00;;;30.90
6454;BMP180;3260;52.438;13.502;2022-08-18T07:35:46;100427.00;;;30.90
6454;BMP180;3260;52.438;13.502;2022-08-18T07:38:24;100435.00;;;31.50
6454;BMP180;3260;52.438;13.502;2022-08-18T07:41:15;100439.00;;;32.10
6454;BMP180;3260;52.438;13.502;2022-08-18T07:43:58;100434.00;;;32.10
6454;BMP180;3260;52.438;13.502;2022-08-18T07:46:35;100436.00;;;32.40
6454;BMP180;3260;52.438;13.502;2022-08-18T07:49:05;100428.00;;;32.40
6454;BMP180;3260;52.438;13.502;2022-08-18T07:51:46;100432.00;;;32.30
6454;BMP180;3260;52.438;13.502;2022-08-18T07:54:32;100430.00;;;32.70
6454;BMP180;3260;52.438;13.502;2022-08-18T07:57:34;100445.00;;;32.20
6454;BMP180;3260;52.438;13.502;2022-08-18T08:00:22;100443.00;;;31.80
6454;BMP180;3260;52.438;13.502;2022-08-18T08:03:25;100456.00;;;32.40
6454;BMP180;3260;52.438;13.502;2022-08-18T08:06:03;100460.00;;;32.90
6454;BMP180;3260;52.438;13.502;2022-08-18T08:08:41;100456.00;;;32.70
6454;BMP180;3260;52.438;13.502;2022-08-18T08:11:24;100455.00;;;32.20
6454;BMP180;3260;52.438;13.502;2022-08-18T08:14:13;100456.00;;;33.00
6454;BMP180;3260;52.438;13.502;2022-08-18T08:17:09;100463.00;;;33.50
6454;BMP180;3260;52.438;13.502;2022-08-18T08:19:56;100456.00;;;33.70
6454;BMP180;3260;52.438;13.502;2022-08-18T08:22:36;100462.00;;;32.50
6454;BMP180;3260;52.438;13.502;2022-08-18T08:25:15;100458.00;;;33.00
6454;BMP180;3260;52.438;13.502;2022-08-18T08:28:18;100455.00;;;31.60
6454;BMP180;3260;52.438;13.502;2022-08-18T08:31:06;100458.00;;;31.70
6454;BMP180;3260;52.438;13.502;2022-08-18T08:34:02;100465.00;;;33.50
6454;BMP180;3260;52.438;13.502;2022-08-18T08:36:38;100459.00;;;33.90
6454;BMP180;3260;52.438;13.502;2022-08-18T08:39:19;100467.00;;;34.20
6454;BMP180;3260;52.438;13.502;2022-08-18T08:41:53;100472.00;;;34.50
6454;BMP180;3260;52.438;13.502;2022-08-18T08:44:51;100464.00;;;34.60
6454;BMP180;3260;52.438;13.502;2022-08-18T08:47:36;100470.00;;;34.90
6454;BMP180;3260;52.438;13.502;2022-08-18T08:50:11;100465.00;;;35.00
6454;BMP180;3260;52.438;13.502;2022-08-18T08:52:46;100463.00;;;35.30
6454;BMP180;3260;52.438;13.502;2022-08-18T08:55:27;100467.00;;;35.80
6454;BMP180;3260;52.438;13.502;2022-08-18T08:58:13;100463.00;;;35.90
6454;BMP180;3260;52.438;13.502;2022-08-18T09:00:46;100458.00;;;36.40
6454;BMP180;3260;52.438;13.502;2022-08-18T09:03:33;100453.00;;;36.30
6454;BMP180;3260;52.438;13.502;2022-08-18T09:06:21;100461.00;;;36.20
6454;BMP180;3260;52.438;13.502;2022-08-18T09:09:20;100451.00;;;36.30
6454;BMP180;3260;52.438;13.502;2022-08-18T09:12:11;100447.00;;;36.40
6454;BMP180;3260;52.438;13.502;2022-08-18T09:15:20;100451.00;;;36.00
6454;BMP180;3260;52.438;13.502;2022-08-18T09:18:29;100449.00;;;35.80
6454;BMP180;3260;52.438;13.502;2022-08-18T09:21:16;100447.00;;;35.80
6454;BMP180;3260;52.438;13.502;2022-08-18T09:23:52;100432.00;;;35.90
6454;BMP180;3260;52.438;13.502;2022-08-18T09:26:40;100445.00;;;35.30
6454;BMP180;3260;52.438;13.502;2022-08-18T09:29:23;100438.00;;;35.40
6454;BMP180;3260;52.438;13.502;2022-08-18T09:32:43;100427.00;;;36.00
6454;BMP180;3260;52.438;13.502;2022-08-18T09:35:53;100435.00;;;35.80
6454;BMP180;3260;52.438;13.502;2022-08-18T09:38:29;100436.00;;;36.10
6454;BMP180;3260;52.438;13.502;2022-08-18T09:41:21;100431.00;;;36.40
6454;BMP180;3260;52.438;13.502;2022-08-18T09:44:04;100434.00;;;36.50
6454;BMP180;3260;52.438;13.502;2022-08-18T09:46:57;100428.00;;;36.70
6454;BMP180;3260;52.438;13.502;2022-08-18T09:49:47;100426.00;;;37.20
6454;BMP180;3260;52.438;13.502;2022-08-18T09:52:48;100422.00;;;37.60
6454;BMP180;3260;52.438;13.502;2022-08-18T09:55:39;100404.00;;;36.90
6454;BMP180;3260;52.438;13.502;2022-08-18T09:58:45;100424.00;;;37.20
6454;BMP180;3260;52.438;13.502;2022-08-18T10:01:35;100427.00;;;37.60
6454;BMP180;3260;52.438;13.502;2022-08-18T10:04:26;100417.00;;;37.20
6454;BMP180;3260;52.438;13.502;2022-08-18T10:07:28;100418.00;;;37.20
6454;BMP180;3260;52.438;13.502;2022-08-18T10:10:20;100411.00;;;37.80
6454;BMP180;3260;52.438;13.502;2022-08-18T10:13:21;100411.00;;;38.00
6454;BMP180;3260;52.438;13.502;2022-08-18T10:16:08;100404.00;;;38.10
6454;BMP180;3260;52.438;13.502;2022-08-18T10:19:06;100401.00;;;38.30
6454;BMP180;3260;52.438;13.502;2022-08-18T10:22:04;100407.00;;;38.60
6454;BMP180;3260;52.438;13.502;2022-08-18T10:24:40;100400.00;;;38.80
6454;BMP180;3260;52.438;13.502;2022-08-18T10:27:47;100397.00;;;39.30
6454;BMP180;3260;52.438;13.502;2022-08-18T10:31:00;100394.00;;;38.40
6454;BMP180;3260;52.438;13.502;2022-08-18T10:34:02;100399.00;;;39.50
6454;BMP180;3260;52.438;13.502;2022-08-18T10:36:50;100400.00;;;39.40
6454;BMP180;3260;52.438;13.502;2022-08-18T10:39:22;100401.00;;;39.80
6454;BMP180;3260;52.438;13.502;2022-08-18T10:42:02;100398.00;;;39.70
6454;BMP180;3260;52.438;13.502;2022-08-18T10:44:42;100405.00;;;38.20
6454;BMP180;3260;52.438;13.502;2022-08-18T10:47:23;100401.00;;;39.30
6454;BMP180;3260;52.438;13.502;2022-08-18T10:50:07;100387.00;;;40.00
6454;BMP180;3260;52.438;13.502;2022-08-18T10:52:58;100393.00;;;39.20
6454;BMP180;3260;52.438;13.502;2022-08-18T10:55:57;100400.00;;;40.10
6454;BMP180;3260;52.438;13.502;2022-08-18T10:58:54;100388.00;;;38.60
6454;BMP180;3260;52.438;13.502;2022-08-18T11:01:53;100398.00;;;40.30
6454;BMP180;3260;52.438;13.502;2022-08-18T11:04:29;100396.00;;;40.20
6454;BMP180;3260;52.438;13.502;2022-08-18T11:07:09;100387.00;;;39.50
6454;BMP180;3260;52.438;13.502;2022-08-18T11:09:39;100385.00;;;39.00
6454;BMP180;3260;52.438;13.502;2022-08-18T11:12:52;100381.00;;;40.30
6454;BMP180;3260;52.438;13.502;2022-08-18T11:15:36;100382.00;;;40.80
6454;BMP180;3260;52.438;13.502;2022-08-18T11:18:30;100377.00;;;41.90
6454;BMP180;3260;52.438;13.502;2022-08-18T11:21:32;100380.00;;;42.50
6454;BMP180;3260;52.438;13.502;2022-08-18T11:24:14;100380.00;;;42.80
6454;BMP180;3260;52.438;13.502;2022-08-18T11:26:46;100384.00;;;43.60
6454;BMP180;3260;52.438;13.502;2022-08-18T11:29:31;100369.00;;;44.60
6454;BMP180;3260;52.438;13.502;2022-08-18T11:32:08;100373.00;;;44.20
6454;BMP180;3260;52.438;13.502;2022-08-18T11:34:43;100373.00;;;43.90
6454;BMP180;3260;52.438;13.502;2022-08-18T11:37:28;100379.00;;;43.50
6454;BMP180;3260;52.438;13.502;2022-08-18T11:40:32;100370.00;;;44.20
6454;BMP180;3260;52.438;13.502;2022-08-18T11:43:25;100373.00;;;44.10
6454;BMP180;3260;52.438;13.502;2022-08-18T11:46:20;100377.00;;;44.60
6454;BMP180;3260;52.438;13.502;2022-08-18T11:49:17;100372.00;;;44.20
6454;BMP180;3260;52.438;13.502;2022-08-18T11:51:59;100370.00;;;42.50
6454;BMP180;3260;52.438;13.502;2022-08-18T11:54:39;100368.00;;;42.70
6454;BMP180;3260;52.438;13.502;2022-08-18T11:57:48;100363.00;;;42.80
6454;BMP180;3260;52.438;13.502;2022-08-18T12:00:54;100363.00;;;43.00
6454;BMP180;3260;52.438;13.502;2022-08-18T12:03:42;100363.00;;;42.30
6454;BMP180;3260;52.438;13.502;2022-08-18T12:06:20;100352.00;;;42.00
6454;BMP180;3260;52.438;13.502;2022-08-18T12:09:03;100353.00;;;42.80
6454;BMP180;3260;52.438;13.502;2022-08-18T12:11:36;100359.00;;;43.40
6454;BMP180;3260;52.438;13.502;2022-08-18T12:14:17;100362.00;;;44.00
6454;BMP180;3260;52.438;13.502;2022-08-18T12:16:59;100354.00;;;44.30
6454;BMP180;3260;52.438;13.502;2022-08-18T12:19:28;100360.00;;;42.80
6454;BMP180;3260;52.438;13.502;2022-08-18T12:22:11;100366.00;;;43.50
6454;BMP180;3260;52.438;13.502;2022-08-18T12:24:40;100362.00;;;44.30
6454;BMP180;3260;52.438;13.502;2022-08-18T12:27:09;100357.00;;;45.60
6454;BMP180;3260;52.438;13.502;2022-08-18T12:29:48;100353.00;;;47.00
6454;BMP180;3260;52.438;13.502;2022-08-18T12:32:17;100363.00;;;47.30
6454;BMP180;3260;52.438;13.502;2022-08-18T12:35:08;100350.00;;;49.40
6454;BMP180;3260;52.438;13.502;2022-08-18T12:37:43;100347.00;;;51.60
6454;BMP180;3260;52.438;13.502;2022-08-18T12:40:33;100335.00;;;53.40
6454;BMP180;3260;52.438;13.502;2022-08-18T12:43:01;100335.00;;;53.90
6454;BMP180;3260;52.438;13.502;2022-08-18T12:45:31;100336.00;;;55.40
6454;BMP180;3260;52.438;13.502;2022-08-18T12:48:00;100336.00;;;54.60
6454;BMP180;3260;52.438;13.502;2022-08-18T12:50:30;100305.00;;;55.60
6454;BMP180;3260;52.438;13.502;2022-08-18T12:53:08;100335.00;;;54.30
6454;BMP180;3260;52.438;13.502;2022-08-18T12:55:42;100335.00;;;52.60
6454;BMP180;3260;52.438;13.502;2022-08-18T12:58:11;100330.00;;;53.70
6454;BMP180;3260;52.438;13.502;2022-08-18T13:00:41;100325.00;;;52.60
6454;BMP180;3260;52.438;13.502;2022-08-18T13:03:09;100326.00;;;51.10
6454;BMP180;3260;52.438;13.502;2022-08-18T13:05:37;100315.00;;;50.30
6454;BMP180;3260;52.438;13.502;2022-08-18T13:08:14;100305.00;;;46.50
6454;BMP180;3260;52.438;13.502;2022-08-18T13:11:00;100325.00;;;45.60
6454;BMP180;3260;52.438;13.502;2022-08-18T13:13:51;100322.00;;;49.90
6454;BMP180;3260;52.438;13.502;2022-08-18T13:20:29;100306.00;;;50.60
6454;BMP180;3260;52.438;13.502;2022-08-18T13:22:57;100309.00;;;47.30
6454;BMP180;3260;52.438;13.502;2022-08-18T13:25:25;100299.00;;;46.40
6454;BMP180;3260;52.438;13.502;2022-08-18T13:28:00;100301.00;;;47.00
6454;BMP180;3260;52.438;13.502;2022-08-18T13:30:29;100305.00;;;46.90
6454;BMP180;3260;52.438;13.502;2022-08-18T13:32:59;100302.00;;;46.50
6454;BMP180;3260;52.438;13.502;2022-08-18T13:35:48;100307.00;;;44.30
6454;BMP180;3260;52.438;13.502;2022-08-18T13:38:21;100296.00;;;43.20
6454;BMP180;3260;52.438;13.502;2022-08-18T13:40:57;100296.00;;;44.00
6454;BMP180;3260;52.438;13.502;2022-08-18T13:43:31;100292.00;;;44.20
6454;BMP180;3260;52.438;13.502;2022-08-18T13:46:01;100295.00;;;44.20
6454;BMP180;3260;52.438;13.502;2022-08-18T13:48:30;100292.00;;;42.20
6454;BMP180;3260;52.438;13.502;2022-08-18T13:51:01;100281.00;;;41.90
6454;BMP180;3260;52.438;13.502;2022-08-18T13:53:31;100288.00;;;42.00
6454;BMP180;3260;52.438;13.502;2022-08-18T13:56:00;100285.00;;;41.20
6454;BMP180;3260;52.438;13.502;2022-08-18T13:58:31;100277.00;;;40.40
6454;BMP180;3260;52.438;13.502;2022-08-18T14:01:04;100272.00;;;39.70
6454;BMP180;3260;52.438;13.502;2022-08-18T14:03:53;100267.00;;;38.20
6454;BMP180;3260;52.438;13.502;2022-08-18T14:06:22;100271.00;;;38.00
6454;BMP180;3260;52.438;13.502;2022-08-18T14:08:53;100256.00;;;37.00
6454;BMP180;3260;52.438;13.502;2022-08-18T14:11:27;100257.00;;;37.10
6454;BMP180;3260;52.438;13.502;2022-08-18T14:14:01;100251.00;;;37.10
6454;BMP180;3260;52.438;13.502;2022-08-18T14:16:31;100253.00;;;37.00
6454;BMP180;3260;52.438;13.502;2022-08-18T14:19:01;100253.00;;;37.70
6454;BMP180;3260;52.438;13.502;2022-08-18T14:21:53;100250.00;;;37.40
6454;BMP180;3260;52.438;13.502;2022-08-18T14:24:41;100241.00;;;37.90
6454;BMP180;3260;52.438;13.502;2022-08-18T14:27:30;100240.00;;;39.50
6454;BMP180;3260;52.438;13.502;2022-08-18T14:30:07;100243.00;;;40.00
6454;BMP180;3260;52.438;13.502;2022-08-18T14:32:37;100244.00;;;40.70
6454;BMP180;3260;52.438;13.502;2022-08-18T14:35:16;100249.00;;;41.30
6454;BMP180;3260;52.438;13.502;2022-08-18T14:38:05;100261.00;;;44.40
6454;BMP180;3260;52.438;13.502;2022-08-18T14:40:37;100249.00;;;44.40
6454;BMP180;3260;52.438;13.502;2022-08-18T14:43:08;100279.00;;;44.00
6454;BMP180;3260;52.438;13.502;2022-08-18T14:45:38;100283.00;;;42.80
6454;BMP180;3260;52.438;13.502;2022-08-18T14:48:17;100277.00;;;42.50
6454;BMP180;3260;52.438;13.502;2022-08-18T14:50:53;100278.00;;;42.50
6454;BMP180;3260;52.438;13.502;2022-08-18T14:53:31;100277.00;;;40.30
6454;BMP180;3260;52.438;13.502;2022-08-18T14:56:03;100274.00;;;39.90
6454;BMP180;3260;52.438;13.502;2022-08-18T14:58:33;100276.00;;;39.10
6454;BMP180;3260;52.438;13.502;2022-08-18T15:01:06;100282.00;;;38.00
6454;BMP180;3260;52.438;13.502;2022-08-18T15:03:38;100279.00;;;37.30
6454;BMP180;3260;52.438;13.502;2022-08-18T15:06:07;100286.00;;;38.20
6454;BMP180;3260;52.438;13.502;2022-08-18T15:08:56;100288.00;;;37.50
6454;BMP180;3260;52.438;13.502;2022-08-18T15:11:24;100279.00;;;38.00
6454;BMP180;3260;52.438;13.502;2022-08-18T15:13:57;100264.00;;;38.90
6454;BMP180;3260;52.438;13.502;2022-08-18T15:16:28;100259.00;;;39.20
6454;BMP180;3260;52.438;13.502;2022-08-18T15:19:05;100266.00;;;39.20
6454;BMP180;3260;52.438;13.502;2022-08-18T15:21:53;100261.00;;;38.50
6454;BMP180;3260;52.438;13.502;2022-08-18T15:24:43;100270.00;;;38.30
6454;BMP180;3260;52.438;13.502;2022-08-18T15:27:31;100281.00;;;37.30
6454;BMP180;3260;52.438;13.502;2022-08-18T15:30:12;100293.00;;;36.50
6454;BMP180;3260;52.438;13.502;2022-08-18T15:32:50;100289.00;;;36.80
6454;BMP180;3260;52.438;13.502;2022-08-18T15:35:19;100281.00;;;36.60
6454;BMP180;3260;52.438;13.502;2022-08-18T15:37:47;100290.00;;;36.50
6454;BMP180;3260;52.438;13.502;2022-08-18T15:40:21;100281.00;;;35.90
6454;BMP180;3260;52.438;13.502;2022-08-18T15:43:06;100274.00;;;35.70
6454;BMP180;3260;52.438;13.502;2022-08-18T15:45:39;100272.00;;;35.80
6454;BMP180;3260;52.438;13.502;2022-08-18T15:48:27;100276.00;;;35.50
6454;BMP180;3260;52.438;13.502;2022-08-18T15:50:55;100275.00;;;35.40
6454;BMP180;3260;52.438;13.502;2022-08-18T15:53:38;100273.00;;;35.40
6454;BMP180;3260;52.438;13.502;2022-08-18T15:56:14;100276.00;;;35.90
6454;BMP180;3260;52.438;13.502;2022-08-18T15:58:47;100281.00;;;35.80
6454;BMP180;3260;52.438;13.502;2022-08-18T16:01:16;100285.00;;;35.40
6454;BMP180;3260;52.438;13.502;2022-08-18T16:03:58;100303.00;;;35.10
6454;BMP180;3260;52.438;13.502;2022-08-18T16:06:27;100306.00;;;35.60
6454;BMP180;3260;52.438;13.502;2022-08-18T16:08:59;100331.00;;;35.60
6454;BMP180;3260;52.438;13.502;2022-08-18T16:11:28;100348.00;;;34.80
6454;BMP180;3260;52.438;13.502;2022-08-18T16:13:56;100360.00;;;34.00
6454;BMP180;3260;52.438;13.502;2022-08-18T16:16:26;100359.00;;;33.30
6454;BMP180;3260;52.438;13.502;2022-08-18T16:19:04;100385.00;;;32.30
6454;BMP180;3260;52.438;13.502;2022-08-18T16:21:34;100419.00;;;29.90
6454;BMP180;3260;52.438;13.502;2022-08-18T16:24:48;100392.00;;;29.10
6454;BMP180;3260;52.438;13.502;2022-08-18T16:28:10;100361.00;;;27.60
6454;BMP180;3260;52.438;13.502;2022-08-18T16:31:03;100365.00;;;27.10
6454;BMP180;3260;52.438;13.502;2022-08-18T16:33:32;100385.00;;;26.80
6454;BMP180;3260;52.438;13.502;2022-08-18T16:36:04;100407.00;;;27.00
6454;BMP180;3260;52.438;13.502;2022-08-18T16:38:33;100388.00;;;26.40
6454;BMP180;3260;52.438;13.502;2022-08-18T16:41:04;100384.00;;;25.90
6454;BMP180;3260;52.438;13.502;2022-08-18T16:43:42;100388.00;;;25.70
6454;BMP180;3260;52.438;13.502;2022-08-18T16:46:12;100378.00;;;25.40
6454;BMP180;3260;52.438;13.502;2022-08-18T16:48:43;100376.00;;;25.10
6454;BMP180;3260;52.438;13.502;2022-08-18T16:51:17;100384.00;;;25.20
6454;BMP180;3260;52.438;13.502;2022-08-18T16:53:46;100371.00;;;25.50
6454;BMP180;3260;52.438;13.502;2022-08-18T16:56:18;100374.00;;;25.80
6454;BMP180;3260;52.438;13.502;2022-08-18T16:58:49;100377.00;;;25.90
6454;BMP180;3260;52.438;13.502;2022-08-18T17:01:36;100373.00;;;25.70
6454;BMP180;3260;52.438;13.502;2022-08-18T17:04:26;100349.00;;;25.40
6454;BMP180;3260;52.438;13.502;2022-08-18T17:06:56;100358.00;;;25.50
6454;BMP180;3260;52.438;13.502;2022-08-18T17:09:25;100350.00;;;25.20
6454;BMP180;3260;52.438;13.502;2022-08-18T17:11:53;100348.00;;;25.20
6454;BMP180;3260;52.438;13.502;2022-08-18T17:14:25;100333.00;;;25.00
6454;BMP180;3260;52.438;13.502;2022-08-18T17:16:54;100325.00;;;25.10
6454;BMP180;3260;52.438;13.502;2022-08-18T17:19:29;100345.00;;;25.40
6454;BMP180;3260;52.438;13.502;2022-08-18T17:22:02;100356.00;;;25.70
6454;BMP180;3260;52.438;13.502;2022-08-18T17:24:31;100351.00;;;25.60
6454;BMP180;3260;52.438;13.502;2022-08-18T17:27:08;100352.00;;;25.40
6454;BMP180;3260;52.438;13.502;2022-08-18T17:30:03;100354.00;;;25.40
6454;BMP180;3260;52.438;13.502;2022-08-18T17:32:43;100352.00;;;25.50
6454;BMP180;3260;52.438;13.502;2022-08-18T17:35:17;100352.00;;;25.10
6454;BMP180;3260;52.438;13.502;2022-08-18T17:38:00;100353.00;;;25.20
6454;BMP180;3260;52.438;13.502;2022-08-18T17:40:35;100359.00;;;25.10
6454;BMP180;3260;52.438;13.502;2022-08-18T17:43:10;100345.00;;;24.80
6454;BMP180;3260;52.438;13.502;2022-08-18T17:45:39;100348.00;;;25.10
6454;BMP180;3260;52.438;13.502;2022-08-18T17:48:14;100341.00;;;25.20
6454;BMP180;3260;52.438;13.502;2022-08-18T17:50:47;100340.00;;;25.30
6454;BMP180;3260;52.438;13.502;2022-08-18T17:53:37;100343.00;;;24.90
6454;BMP180;3260;52.438;13.502;2022-08-18T17:56:15;100348.00;;;24.50
6454;BMP180;3260;52.438;13.502;2022-08-18T17:58:52;100351.00;;;25.00
6454;BMP180;3260;52.438;13.502;2022-08-18T18:01:24;100348.00;;;25.10
6454;BMP180;3260;52.438;13.502;2022-08-18T18:03:53;100352.00;;;25.00
6454;BMP180;3260;52.438;13.502;2022-08-18T18:06:30;100357.00;;;25.10
6454;BMP180;3260;52.438;13.502;2022-08-18T18:09:09;100347.00;;;25.00
6454;BMP180;3260;52.438;13.502;2022-08-18T18:11:42;100349.00;;;24.90
6454;BMP180;3260;52.438;13.502;2022-08-18T18:14:26;100352.00;;;24.80
6454;BMP180;3260;52.438;13.502;2022-08-18T18:17:02;100363.00;;;24.90
6454;BMP180;3260;52.438;13.502;2022-08-18T18:19:33;100360.00;;;24.90
6454;BMP180;3260;52.438;13.502;2022-08-18T18:22:07;100359.00;;;25.00
6454;BMP180;3260;52.438;13.502;2022-08-18T18:24:38;100350.00;;;24.70
6454;BMP180;3260;52.438;13.502;2022-08-18T18:27:26;100367.00;;;24.60
6454;BMP180;3260;52.438;13.502;2022-08-18T18:29:59;100368.00;;;24.80
6454;BMP180;3260;52.438;13.502;2022-08-18T18:32:31;100360.00;;;24.70
6454;BMP180;3260;52.438;13.502;2022-08-18T18:35:15;100367.00;;;24.50
6454;BMP180;3260;52.438;13.502;2022-08-18T18:37:48;100358.00;;;24.70
6454;BMP180;3260;52.438;13.502;2022-08-18T18:40:30;100337.00;;;24.80
6454;BMP180;3260;52.438;13.502;2022-08-18T18:43:21;100342.00;;;24.50
6454;BMP180;3260;52.438;13.502;2022-08-18T18:46:10;100330.00;;;24.30
6454;BMP180;3260;52.438;13.502;2022-08-18T18:48:57;100342.00;;;24.50
6454;BMP180;3260;52.438;13.502;2022-08-18T18:51:37;100348.00;;;24.20
6454;BMP180;3260;52.438;13.502;2022-08-18T18:54:27;100321.00;;;24.50
6454;BMP180;3260;52.438;13.502;2022-08-18T18:57:00;100351.00;;;24.50
6454;BMP180;3260;52.438;13.502;2022-08-18T18:59:56;100349.00;;;24.50
6454;BMP180;3260;52.438;13.502;2022-08-18T19:02:41;100355.00;;;24.50
6454;BMP180;3260;52.438;13.502;2022-08-18T19:05:25;100349.00;;;24.40
6454;BMP180;3260;52.438;13.502;2022-08-18T19:08:12;100360.00;;;24.40
6454;BMP180;3260;52.438;13.502;2022-08-18T19:10:55;100366.00;;;24.60
6454;BMP180;3260;52.438;13.502;2022-08-18T19:13:30;100384.00;;;24.70
6454;BMP180;3260;52.438;13.502;2022-08-18T19:16:11;100385.00;;;24.40
6454;BMP180;3260;52.438;13.502;2022-08-18T19:18:55;100383.00;;;24.70
6454;BMP180;3260;52.438;13.502;2022-08-18T19:21:52;100368.00;;;24.50
6454;BMP180;3260;52.438;13.502;2022-08-18T19:24:40;100356.00;;;24.80